createdAt,value
2018-08-31T00:00:33.368Z,16.40
2018-08-31T00:01:33.274Z,16.80
2018-08-31T00:02:33.181Z,17.10
2018-08-31T00:03:33.087Z,16.20
2018-08-31T00:04:33.007Z,16.60
2018-08-31T00:05:32.896Z,16.40
2018-08-31T00:06:32.904Z,16.30
2018-08-31T00:07:32.711Z,16.20
2018-08-31T00:08:32.613Z,16.70
2018-08-31T00:09:32.536Z,16.90
2018-08-31T00:10:32.432Z,17.10
2018-08-31T00:11:32.330Z,16.20
2018-08-31T00:12:32.236Z,16.60
2018-08-31T00:13:32.239Z,17.70
2018-08-31T00:14:32.063Z,16.80
2018-08-31T00:15:31.956Z,17.50
2018-08-31T00:16:31.857Z,16.90
2018-08-31T00:17:31.761Z,16.90
2018-08-31T00:18:31.671Z,15.90
2018-08-31T00:19:31.591Z,16.20
2018-08-31T00:20:31.599Z,16.40
2018-08-31T00:21:31.386Z,16.50
2018-08-31T00:22:31.290Z,15.50
2018-08-31T00:23:31.201Z,16.70
2018-08-31T00:24:31.118Z,16.30
2018-08-31T00:25:31.008Z,16.30
2018-08-31T00:26:30.912Z,15.80
2018-08-31T00:27:30.916Z,15.60
2018-08-31T00:28:30.726Z,15.90
2018-08-31T00:29:30.648Z,16.40
2018-08-31T00:30:30.537Z,16.10
2018-08-31T00:31:30.440Z,17.00
2018-08-31T00:32:30.345Z,16.30
2018-08-31T00:33:30.253Z,15.70
2018-08-31T00:34:30.273Z,15.20
2018-08-31T00:35:30.062Z,14.90
2018-08-31T00:36:29.965Z,15.40
2018-08-31T00:37:29.874Z,14.40
2018-08-31T00:38:29.778Z,15.20
2018-08-31T00:39:29.697Z,15.60
2018-08-31T00:40:29.716Z,15.90
2018-08-31T00:41:29.500Z,15.80
2018-08-31T00:42:29.400Z,16.70
2018-08-31T00:43:29.306Z,16.50
2018-08-31T00:44:29.226Z,15.70
2018-08-31T00:45:29.114Z,15.70
2018-08-31T00:46:29.021Z,17.10
2018-08-31T00:47:28.924Z,16.50
2018-08-31T00:48:28.830Z,16.50
2018-08-31T00:49:28.741Z,16.20
2018-08-31T00:50:28.659Z,16.70
2018-08-31T00:51:28.546Z,18.00
2018-08-31T00:52:28.452Z,17.20
2018-08-31T00:53:28.360Z,16.40
2018-08-31T00:54:28.265Z,16.70
2018-08-31T00:55:28.186Z,20.00
2018-08-31T00:56:28.073Z,18.60
2018-08-31T00:57:27.980Z,19.70
2018-08-31T00:58:27.890Z,18.30
2018-08-31T00:59:27.795Z,19.40
2018-08-31T01:00:27.714Z,17.10
2018-08-31T01:01:27.604Z,16.60
2018-08-31T01:02:27.512Z,19.30
2018-08-31T01:03:27.413Z,16.20
2018-08-31T01:04:27.320Z,15.70
2018-08-31T01:05:27.240Z,16.10
2018-08-31T01:06:27.133Z,16.40
2018-08-31T01:07:27.039Z,15.30
2018-08-31T01:08:26.939Z,15.50
2018-08-31T01:09:26.847Z,16.20
2018-08-31T01:10:26.769Z,16.20
2018-08-31T01:11:26.654Z,17.90
2018-08-31T01:12:26.559Z,18.80
2018-08-31T01:13:26.466Z,19.00
2018-08-31T01:14:26.373Z,19.90
2018-08-31T01:15:26.292Z,19.70
2018-08-31T01:16:26.180Z,19.30
2018-08-31T01:17:26.088Z,17.50
2018-08-31T01:18:25.991Z,16.90
2018-08-31T01:19:25.896Z,15.60
2018-08-31T01:20:25.817Z,14.80
2018-08-31T01:21:25.707Z,14.30
2018-08-31T01:22:25.613Z,14.00
2018-08-31T01:23:25.521Z,14.70
2018-08-31T01:24:25.425Z,13.80
2018-08-31T01:25:25.347Z,14.60
2018-08-31T01:26:25.236Z,15.40
2018-08-31T01:27:25.139Z,14.90
2018-08-31T01:28:25.046Z,15.20
2018-08-31T01:29:24.952Z,15.70
2018-08-31T01:30:24.874Z,14.70
2018-08-31T01:31:24.759Z,15.30
2018-08-31T01:32:24.667Z,14.80
2018-08-31T01:33:24.572Z,14.40
2018-08-31T01:34:24.480Z,13.90
2018-08-31T01:35:24.402Z,14.30
2018-08-31T01:36:24.286Z,15.40
2018-08-31T01:37:24.196Z,16.10
2018-08-31T01:38:24.100Z,15.50
2018-08-31T01:39:24.007Z,15.90
2018-08-31T01:40:23.927Z,15.80
2018-08-31T01:41:23.839Z,15.10
2018-08-31T01:42:23.719Z,14.90
2018-08-31T01:43:23.628Z,15.90
2018-08-31T01:44:23.535Z,15.70
2018-08-31T01:45:23.459Z,15.70
2018-08-31T01:46:23.346Z,14.20
2018-08-31T01:47:23.252Z,15.80
2018-08-31T01:48:23.162Z,16.00
2018-08-31T01:49:23.068Z,15.50
2018-08-31T01:50:22.986Z,14.80
2018-08-31T01:51:22.871Z,15.10
2018-08-31T01:52:22.774Z,14.80
2018-08-31T01:53:22.682Z,13.00
2018-08-31T01:54:22.588Z,14.50
2018-08-31T01:55:22.509Z,18.20
2018-08-31T01:56:22.399Z,15.80
2018-08-31T01:57:22.304Z,15.20
2018-08-31T01:58:22.213Z,14.50
2018-08-31T01:59:22.117Z,14.60
2018-08-31T02:00:22.043Z,14.50
2018-08-31T02:01:21.931Z,14.10
2018-08-31T02:02:21.835Z,14.70
2018-08-31T02:03:21.738Z,13.90
2018-08-31T02:04:21.647Z,13.80
2018-08-31T02:05:21.568Z,13.80
2018-08-31T02:06:21.458Z,12.90
2018-08-31T02:07:21.361Z,12.10
2018-08-31T02:08:21.265Z,11.70
2018-08-31T02:09:21.196Z,11.10
2018-08-31T02:10:21.097Z,11.90
2018-08-31T02:11:20.987Z,11.50
2018-08-31T02:12:20.891Z,13.80
2018-08-31T02:13:20.796Z,14.30
2018-08-31T02:14:20.700Z,13.30
2018-08-31T02:15:20.622Z,13.20
2018-08-31T02:16:20.514Z,11.40
2018-08-31T02:17:20.419Z,11.20
2018-08-31T02:18:20.327Z,11.60
2018-08-31T02:19:20.231Z,11.90
2018-08-31T02:20:20.153Z,11.80
2018-08-31T02:21:20.044Z,11.90
2018-08-31T02:22:19.948Z,11.90
2018-08-31T02:23:19.851Z,11.90
2018-08-31T02:24:19.760Z,11.50
2018-08-31T02:25:19.684Z,12.20
2018-08-31T02:26:19.578Z,12.00
2018-08-31T02:27:19.761Z,12.50
2018-08-31T02:28:19.382Z,12.80
2018-08-31T02:29:19.284Z,12.10
2018-08-31T02:30:19.192Z,11.80
2018-08-31T02:31:19.111Z,12.10
2018-08-31T02:32:19.003Z,12.50
2018-08-31T02:33:19.011Z,12.00
2018-08-31T02:34:18.815Z,12.70
2018-08-31T02:35:18.735Z,12.40
2018-08-31T02:36:18.625Z,13.10
2018-08-31T02:37:18.528Z,13.50
2018-08-31T02:38:18.434Z,14.60
2018-08-31T02:39:18.408Z,15.60
2018-08-31T02:40:18.353Z,15.50
2018-08-31T02:41:18.168Z,14.60
2018-08-31T02:42:18.109Z,13.80
2018-08-31T02:43:17.961Z,14.10
2018-08-31T02:44:17.870Z,14.00
2018-08-31T02:45:17.777Z,14.10
2018-08-31T02:46:17.693Z,14.40
2018-08-31T02:47:17.685Z,15.60
2018-08-31T02:48:17.488Z,14.90
2018-08-31T02:49:17.401Z,15.30
2018-08-31T02:50:17.301Z,15.30
2018-08-31T02:51:17.225Z,14.90
2018-08-31T02:52:17.108Z,20.40
2018-08-31T02:53:17.021Z,24.20
2018-08-31T02:54:17.026Z,15.30
2018-08-31T02:55:16.827Z,15.80
2018-08-31T02:56:16.747Z,15.30
2018-08-31T02:57:16.637Z,15.50
2018-08-31T02:58:16.541Z,15.50
2018-08-31T02:59:16.446Z,15.60
2018-08-31T03:00:16.353Z,14.90
2018-08-31T03:01:16.377Z,15.10
2018-08-31T03:02:16.173Z,14.80
2018-08-31T03:03:16.070Z,13.20
2018-08-31T03:04:15.978Z,11.60
2018-08-31T03:05:15.883Z,10.80
2018-08-31T03:06:15.811Z,9.40
2018-08-31T03:07:15.691Z,9.30
2018-08-31T03:08:15.596Z,8.50
2018-08-31T03:09:15.507Z,8.80
2018-08-31T03:10:15.407Z,9.80
2018-08-31T03:11:15.330Z,9.30
2018-08-31T03:12:15.230Z,9.70
2018-08-31T03:13:15.128Z,9.50
2018-08-31T03:14:15.031Z,8.90
2018-08-31T03:15:15.037Z,9.70
2018-08-31T03:16:14.857Z,9.80
2018-08-31T03:17:14.744Z,10.50
2018-08-31T03:18:14.651Z,9.80
2018-08-31T03:19:14.558Z,9.90
2018-08-31T03:20:14.465Z,10.20
2018-08-31T03:21:14.483Z,10.50
2018-08-31T03:22:14.389Z,11.00
2018-08-31T03:23:14.180Z,10.50
2018-08-31T03:24:14.083Z,10.20
2018-08-31T03:25:13.990Z,10.30
2018-08-31T03:26:13.894Z,10.40
2018-08-31T03:27:13.818Z,10.90
2018-08-31T03:28:13.705Z,11.00
2018-08-31T03:29:13.611Z,10.90
2018-08-31T03:30:13.520Z,9.90
2018-08-31T03:31:13.422Z,9.80
2018-08-31T03:32:13.343Z,8.70
2018-08-31T03:33:13.230Z,9.20
2018-08-31T03:34:13.141Z,10.70
2018-08-31T03:35:13.171Z,9.70
2018-08-31T03:36:12.950Z,10.10
2018-08-31T03:37:12.871Z,9.60
2018-08-31T03:38:12.760Z,10.30
2018-08-31T03:39:12.666Z,9.20
2018-08-31T03:40:12.572Z,10.40
2018-08-31T03:41:12.477Z,9.70
2018-08-31T03:42:12.399Z,9.90
2018-08-31T03:43:12.288Z,9.70
2018-08-31T03:44:12.192Z,8.90
2018-08-31T03:45:12.101Z,9.30
2018-08-31T03:46:12.008Z,9.10
2018-08-31T03:47:11.924Z,8.70
2018-08-31T03:48:11.818Z,8.80
2018-08-31T03:49:11.721Z,8.50
2018-08-31T03:50:11.625Z,8.40
2018-08-31T03:51:11.530Z,8.40
2018-08-31T03:52:11.454Z,7.80
2018-08-31T03:53:11.340Z,7.00
2018-08-31T03:54:11.246Z,7.10
2018-08-31T03:55:11.153Z,7.60
2018-08-31T03:56:11.063Z,8.10
2018-08-31T03:57:10.981Z,8.70
2018-08-31T03:58:10.867Z,7.20
2018-08-31T03:59:10.773Z,7.50
2018-08-31T04:00:10.678Z,7.30
2018-08-31T04:01:10.584Z,7.40
2018-08-31T04:02:10.506Z,6.20
2018-08-31T04:03:10.395Z,7.50
2018-08-31T04:04:10.299Z,8.10
2018-08-31T04:05:10.211Z,8.00
2018-08-31T04:06:10.117Z,7.40
2018-08-31T04:07:10.036Z,8.50
2018-08-31T04:08:09.925Z,8.40
2018-08-31T04:09:09.828Z,8.10
2018-08-31T04:10:09.734Z,8.00
2018-08-31T04:11:09.639Z,8.70
2018-08-31T04:12:09.560Z,9.00
2018-08-31T04:13:09.452Z,8.80
2018-08-31T04:14:09.356Z,9.40
2018-08-31T04:15:09.386Z,9.20
2018-08-31T04:16:09.166Z,8.90
2018-08-31T04:17:09.090Z,8.80
2018-08-31T04:18:08.981Z,8.90
2018-08-31T04:19:08.881Z,9.80
2018-08-31T04:20:08.792Z,9.10
2018-08-31T04:21:08.694Z,9.00
2018-08-31T04:22:08.620Z,8.10
2018-08-31T04:23:08.523Z,8.30
2018-08-31T04:24:08.417Z,8.70
2018-08-31T04:25:08.324Z,8.40
2018-08-31T04:26:08.227Z,8.30
2018-08-31T04:27:08.133Z,7.70
2018-08-31T04:28:08.052Z,7.60
2018-08-31T04:29:07.938Z,7.10
2018-08-31T04:30:07.844Z,7.70
2018-08-31T04:31:07.748Z,8.20
2018-08-31T04:32:07.662Z,7.50
2018-08-31T04:33:07.578Z,8.00
2018-08-31T04:34:07.499Z,7.80
2018-08-31T04:35:07.372Z,6.80
2018-08-31T04:36:07.281Z,7.50
2018-08-31T04:37:07.186Z,7.70
2018-08-31T04:38:07.104Z,7.50
2018-08-31T04:39:06.998Z,7.20
2018-08-31T04:40:06.903Z,7.30
2018-08-31T04:41:06.809Z,8.20
2018-08-31T04:42:06.714Z,8.90
2018-08-31T04:43:06.635Z,9.10
2018-08-31T04:44:06.521Z,8.20
2018-08-31T04:45:06.429Z,8.60
2018-08-31T04:46:06.334Z,8.60
2018-08-31T04:47:06.240Z,8.50
2018-08-31T04:48:06.164Z,8.60
2018-08-31T04:49:06.049Z,8.80
2018-08-31T04:50:05.957Z,8.60
2018-08-31T04:51:05.860Z,8.90
2018-08-31T04:52:05.767Z,9.40
2018-08-31T04:53:05.693Z,9.40
2018-08-31T04:54:05.578Z,9.40
2018-08-31T04:55:05.487Z,9.50
2018-08-31T04:56:05.391Z,10.10
2018-08-31T04:57:05.299Z,9.40
2018-08-31T04:58:05.219Z,9.10
2018-08-31T04:59:05.216Z,9.30
2018-08-31T05:00:05.012Z,9.40
2018-08-31T05:01:04.922Z,9.60
2018-08-31T05:02:04.825Z,9.50
2018-08-31T05:03:04.749Z,9.40
2018-08-31T05:04:04.638Z,10.60
2018-08-31T05:05:04.543Z,12.00
2018-08-31T05:06:04.553Z,12.80
2018-08-31T05:07:04.352Z,12.50
2018-08-31T05:08:04.277Z,12.50
2018-08-31T05:09:04.170Z,12.60
2018-08-31T05:10:04.070Z,13.50
2018-08-31T05:11:03.993Z,12.40
2018-08-31T05:12:03.885Z,12.50
2018-08-31T05:13:03.907Z,12.30
2018-08-31T05:14:03.695Z,13.10
2018-08-31T05:15:03.604Z,12.80
2018-08-31T05:16:03.540Z,13.10
2018-08-31T05:17:03.418Z,12.80
2018-08-31T05:18:03.337Z,13.30
2018-08-31T05:19:03.230Z,13.00
2018-08-31T05:20:03.236Z,12.40
2018-08-31T05:21:03.036Z,12.00
2018-08-31T05:22:02.943Z,11.70
2018-08-31T05:23:02.933Z,11.90
2018-08-31T05:24:02.753Z,10.60
2018-08-31T05:25:02.664Z,10.30
2018-08-31T05:26:02.570Z,9.90
2018-08-31T05:27:02.577Z,10.10
2018-08-31T05:28:02.397Z,9.30
2018-08-31T05:29:02.289Z,8.40
2018-08-31T05:30:02.201Z,8.60
2018-08-31T05:31:02.098Z,9.00
2018-08-31T05:32:02.013Z,9.40
2018-08-31T05:33:01.927Z,9.70
2018-08-31T05:34:01.935Z,9.90
2018-08-31T05:35:01.727Z,10.10
2018-08-31T05:36:01.631Z,9.90
2018-08-31T05:37:01.542Z,10.10
2018-08-31T05:38:01.461Z,10.40
2018-08-31T05:39:01.351Z,10.00
2018-08-31T05:40:01.298Z,11.00
2018-08-31T05:41:01.261Z,10.70
2018-08-31T05:42:01.069Z,9.90
2018-08-31T05:43:00.993Z,9.60
2018-08-31T05:44:00.882Z,9.40
2018-08-31T05:45:00.789Z,9.30
2018-08-31T05:46:00.696Z,9.20
2018-08-31T05:47:00.603Z,9.20
2018-08-31T05:48:00.628Z,9.40
2018-08-31T05:49:00.416Z,9.60
2018-08-31T05:50:00.322Z,9.30
2018-08-31T05:51:00.229Z,9.60
2018-08-31T05:52:00.138Z,9.60
2018-08-31T05:53:00.060Z,9.60
2018-08-31T05:54:00.078Z,9.90
2018-08-31T05:54:59.856Z,9.70
2018-08-31T05:55:59.763Z,8.80
2018-08-31T05:56:59.672Z,8.20
2018-08-31T05:57:59.598Z,8.40
2018-08-31T05:58:59.484Z,8.30
2018-08-31T05:59:59.390Z,8.20
2018-08-31T06:00:59.299Z,8.30
2018-08-31T06:01:59.290Z,8.90
2018-08-31T06:02:59.127Z,8.30
2018-08-31T06:03:59.018Z,8.80
2018-08-31T06:04:58.927Z,8.10
2018-08-31T06:05:58.836Z,7.90
2018-08-31T06:06:58.741Z,8.20
2018-08-31T06:07:58.663Z,8.30
2018-08-31T06:08:58.554Z,8.60
2018-08-31T06:09:58.461Z,8.90
2018-08-31T06:10:58.369Z,8.40
2018-08-31T06:11:58.335Z,8.00
2018-08-31T06:12:58.186Z,8.60
2018-08-31T06:13:58.108Z,7.60
2018-08-31T06:14:57.995Z,7.80
2018-08-31T06:15:57.909Z,7.70
2018-08-31T06:16:57.811Z,8.20
2018-08-31T06:17:57.721Z,7.60
2018-08-31T06:18:57.646Z,7.70
2018-08-31T06:19:57.538Z,8.60
2018-08-31T06:20:57.454Z,7.90
2018-08-31T06:21:57.347Z,7.60
2018-08-31T06:22:57.260Z,8.50
2018-08-31T06:23:57.180Z,7.60
2018-08-31T06:24:57.074Z,7.80
2018-08-31T06:25:56.981Z,7.80
2018-08-31T06:26:56.893Z,7.80
2018-08-31T06:27:56.799Z,7.40
2018-08-31T06:28:56.720Z,7.30
2018-08-31T06:29:56.609Z,7.40
2018-08-31T06:30:56.515Z,7.30
2018-08-31T06:31:56.425Z,6.90
2018-08-31T06:32:56.332Z,6.90
2018-08-31T06:33:56.336Z,7.20
2018-08-31T06:34:56.178Z,7.10
2018-08-31T06:35:56.068Z,7.00
2018-08-31T06:36:55.967Z,6.90
2018-08-31T06:37:55.873Z,6.90
2018-08-31T06:38:55.817Z,6.80
2018-08-31T06:39:55.690Z,6.90
2018-08-31T06:40:55.596Z,6.60
2018-08-31T06:41:55.505Z,7.00
2018-08-31T06:42:55.411Z,7.00
2018-08-31T06:43:55.340Z,7.60
2018-08-31T06:44:55.230Z,7.50
2018-08-31T06:45:55.140Z,6.90
2018-08-31T06:46:55.048Z,7.00
2018-08-31T06:47:54.954Z,6.10
2018-08-31T06:48:54.880Z,5.70
2018-08-31T06:49:54.771Z,5.70
2018-08-31T06:50:54.679Z,5.40
2018-08-31T06:51:54.590Z,4.80
2018-08-31T06:52:54.502Z,5.10
2018-08-31T06:53:54.425Z,5.10
2018-08-31T06:54:54.315Z,5.30
2018-08-31T06:55:54.226Z,5.20
2018-08-31T06:56:54.238Z,5.20
2018-08-31T06:57:54.046Z,5.70
2018-08-31T06:58:54.018Z,6.40
2018-08-31T06:59:53.864Z,7.00
2018-08-31T07:00:53.770Z,7.10
2018-08-31T07:01:53.681Z,7.00
2018-08-31T07:02:53.590Z,7.90
2018-08-31T07:03:53.581Z,7.90
2018-08-31T07:04:53.409Z,8.30
2018-08-31T07:05:53.316Z,8.90
2018-08-31T07:06:53.224Z,9.20
2018-08-31T07:07:53.135Z,9.60
2018-08-31T07:08:53.057Z,10.00
2018-08-31T07:09:52.951Z,9.80
2018-08-31T07:10:52.957Z,10.10
2018-08-31T07:11:52.769Z,10.10
2018-08-31T07:12:52.679Z,10.10
2018-08-31T07:13:52.614Z,10.10
2018-08-31T07:14:52.495Z,9.80
2018-08-31T07:15:52.404Z,10.20
2018-08-31T07:16:52.314Z,10.30
2018-08-31T07:17:52.318Z,9.50
2018-08-31T07:18:52.149Z,9.90
2018-08-31T07:19:52.081Z,9.80
2018-08-31T07:20:51.948Z,9.70
2018-08-31T07:21:51.856Z,9.60
2018-08-31T07:22:51.770Z,9.10
2018-08-31T07:23:51.694Z,9.70
2018-08-31T07:24:51.690Z,9.20
2018-08-31T07:25:51.495Z,8.60
2018-08-31T07:26:51.423Z,9.20
2018-08-31T07:27:51.318Z,9.50
2018-08-31T07:28:51.239Z,9.50
2018-08-31T07:29:51.129Z,10.50
2018-08-31T07:30:51.047Z,13.10
2018-08-31T07:31:50.948Z,13.60
2018-08-31T07:32:50.855Z,16.30
2018-08-31T07:33:50.843Z,15.20
2018-08-31T07:34:50.681Z,15.80
2018-08-31T07:35:50.679Z,16.50
2018-08-31T07:36:50.495Z,17.00
2018-08-31T07:37:50.403Z,16.40
2018-08-31T07:38:50.328Z,17.00
2018-08-31T07:39:50.223Z,17.50
2018-08-31T07:40:50.133Z,16.70
2018-08-31T07:41:50.037Z,16.50
2018-08-31T07:42:49.947Z,16.20
2018-08-31T07:43:49.871Z,16.20
2018-08-31T07:44:49.765Z,16.00
2018-08-31T07:45:49.675Z,15.60
2018-08-31T07:46:49.587Z,15.10
2018-08-31T07:47:49.563Z,15.90
2018-08-31T07:48:49.421Z,16.30
2018-08-31T07:49:49.316Z,16.10
2018-08-31T07:50:49.220Z,15.80
2018-08-31T07:51:49.131Z,15.50
2018-08-31T07:52:49.037Z,15.50
2018-08-31T07:53:48.983Z,16.20
2018-08-31T07:54:48.856Z,16.10
2018-08-31T07:55:48.767Z,17.20
2018-08-31T07:56:48.685Z,16.40
2018-08-31T07:57:48.583Z,15.50
2018-08-31T07:58:48.514Z,14.70
2018-08-31T07:59:48.402Z,14.00
2018-08-31T08:00:48.617Z,13.50
2018-08-31T08:01:48.221Z,13.50
2018-08-31T08:02:48.131Z,14.50
2018-08-31T08:03:48.047Z,13.40
2018-08-31T08:04:47.968Z,12.60
2018-08-31T08:05:47.862Z,12.60
2018-08-31T08:06:47.772Z,12.10
2018-08-31T08:07:47.783Z,11.60
2018-08-31T08:08:47.596Z,12.00
2018-08-31T08:09:47.523Z,11.60
2018-08-31T08:10:47.412Z,12.20
2018-08-31T08:11:47.324Z,12.20
2018-08-31T08:12:47.234Z,12.70
2018-08-31T08:13:47.147Z,12.20
2018-08-31T08:14:47.187Z,12.20
2018-08-31T08:15:46.968Z,12.70
2018-08-31T08:16:46.878Z,12.60
2018-08-31T08:17:46.816Z,12.60
2018-08-31T08:18:46.702Z,13.20
2018-08-31T08:19:46.625Z,13.00
2018-08-31T08:20:46.617Z,12.40
2018-08-31T08:21:46.432Z,12.90
2018-08-31T08:22:46.343Z,12.60
2018-08-31T08:23:46.256Z,12.60
2018-08-31T08:24:46.184Z,13.20
2018-08-31T08:25:46.083Z,12.90
2018-08-31T08:26:46.000Z,12.20
2018-08-31T08:27:45.895Z,12.20
2018-08-31T08:28:45.906Z,12.80
2018-08-31T08:29:45.740Z,11.60
2018-08-31T08:30:45.629Z,12.40
2018-08-31T08:31:45.542Z,11.70
2018-08-31T08:32:45.452Z,11.70
2018-08-31T08:33:45.363Z,13.00
2018-08-31T08:34:45.291Z,14.20
2018-08-31T08:35:45.192Z,13.90
2018-08-31T08:36:45.098Z,13.30
2018-08-31T08:37:45.017Z,13.50
2018-08-31T08:38:44.919Z,13.10
2018-08-31T08:39:44.843Z,13.00
2018-08-31T08:40:44.738Z,12.30
2018-08-31T08:41:44.650Z,12.30
2018-08-31T08:42:44.571Z,12.00
2018-08-31T08:43:44.474Z,11.90
2018-08-31T08:44:44.402Z,12.30
2018-08-31T08:45:44.298Z,12.60
2018-08-31T08:46:44.207Z,10.30
2018-08-31T08:47:44.117Z,10.60
2018-08-31T08:48:44.177Z,9.90
2018-08-31T08:49:43.962Z,10.10
2018-08-31T08:50:43.856Z,10.20
2018-08-31T08:51:43.766Z,9.80
2018-08-31T08:52:43.677Z,10.40
2018-08-31T08:53:43.591Z,10.40
2018-08-31T08:54:43.524Z,10.10
2018-08-31T08:55:43.411Z,11.00
2018-08-31T08:56:43.328Z,10.20
2018-08-31T08:57:43.239Z,9.70
2018-08-31T08:58:43.155Z,9.80
2018-08-31T08:59:43.073Z,10.60
2018-08-31T09:00:42.965Z,9.90
2018-08-31T09:01:42.888Z,9.50
2018-08-31T09:02:42.793Z,10.40
2018-08-31T09:03:42.704Z,10.20
2018-08-31T09:04:42.634Z,9.70
2018-08-31T09:05:42.663Z,9.90
2018-08-31T09:06:42.441Z,9.90
2018-08-31T09:07:42.354Z,10.20
2018-08-31T09:08:42.263Z,10.20
2018-08-31T09:09:42.195Z,9.90
2018-08-31T09:10:42.090Z,9.40
2018-08-31T09:11:42.027Z,9.30
2018-08-31T09:12:41.912Z,9.50
2018-08-31T09:13:41.827Z,8.90
2018-08-31T09:14:41.754Z,9.10
2018-08-31T09:15:41.651Z,9.70
2018-08-31T09:16:41.564Z,9.20
2018-08-31T09:17:41.474Z,9.30
2018-08-31T09:18:41.388Z,8.80
2018-08-31T09:19:41.319Z,8.90
2018-08-31T09:20:41.214Z,8.20
2018-08-31T09:21:41.126Z,8.00
2018-08-31T09:22:41.042Z,8.70
2018-08-31T09:23:40.954Z,7.70
2018-08-31T09:24:40.955Z,7.50
2018-08-31T09:25:40.777Z,7.00
2018-08-31T09:26:40.689Z,6.80
2018-08-31T09:27:40.605Z,6.90
2018-08-31T09:28:40.517Z,7.20
2018-08-31T09:29:40.451Z,6.70
2018-08-31T09:30:40.365Z,6.70
2018-08-31T09:31:40.259Z,6.60
2018-08-31T09:32:40.239Z,6.20
2018-08-31T09:33:40.081Z,6.50
2018-08-31T09:34:39.997Z,6.10
2018-08-31T09:35:39.925Z,6.10
2018-08-31T09:36:39.821Z,5.80
2018-08-31T09:37:39.743Z,6.40
2018-08-31T09:38:39.652Z,6.20
2018-08-31T09:39:39.583Z,6.00
2018-08-31T09:40:39.481Z,6.20
2018-08-31T09:41:39.397Z,6.10
2018-08-31T09:42:39.306Z,6.10
2018-08-31T09:43:39.221Z,6.10
2018-08-31T09:44:39.254Z,6.00
2018-08-31T09:45:39.064Z,5.70
2018-08-31T09:46:38.961Z,5.80
2018-08-31T09:47:38.876Z,4.90
2018-08-31T09:48:38.788Z,5.10
2018-08-31T09:49:38.730Z,4.80
2018-08-31T09:50:38.633Z,5.10
2018-08-31T09:51:38.630Z,5.30
2018-08-31T09:52:38.447Z,4.80
2018-08-31T09:53:38.358Z,4.50
2018-08-31T09:54:38.277Z,4.50
2018-08-31T09:55:38.205Z,4.00
2018-08-31T09:56:38.105Z,4.80
2018-08-31T09:57:38.019Z,4.20
2018-08-31T09:58:38.039Z,4.40
2018-08-31T09:59:37.849Z,4.40
2018-08-31T10:00:37.776Z,4.80
2018-08-31T10:01:37.674Z,4.80
2018-08-31T10:02:37.595Z,4.20
2018-08-31T10:03:37.519Z,4.30
2018-08-31T10:04:37.422Z,4.20
2018-08-31T10:05:37.459Z,3.70
2018-08-31T10:06:37.251Z,3.60
2018-08-31T10:07:37.165Z,4.10
2018-08-31T10:08:37.082Z,3.80
2018-08-31T10:09:36.997Z,3.80
2018-08-31T10:10:36.944Z,3.40
2018-08-31T10:11:36.829Z,3.50
2018-08-31T10:12:36.846Z,4.00
2018-08-31T10:13:36.661Z,3.60
2018-08-31T10:14:36.574Z,3.80
2018-08-31T10:15:36.511Z,4.00
2018-08-31T10:16:36.409Z,3.70
2018-08-31T10:17:36.325Z,3.90
2018-08-31T10:18:36.260Z,3.60
2018-08-31T10:19:36.256Z,3.80
2018-08-31T10:20:36.092Z,3.80
2018-08-31T10:21:35.991Z,3.80
2018-08-31T10:22:35.909Z,4.50
2018-08-31T10:23:35.822Z,4.20
2018-08-31T10:24:35.738Z,3.90
2018-08-31T10:25:35.672Z,4.40
2018-08-31T10:26:35.685Z,4.10
2018-08-31T10:27:35.488Z,3.80
2018-08-31T10:28:35.407Z,4.20
2018-08-31T10:29:35.324Z,4.20
2018-08-31T10:30:35.256Z,4.30
2018-08-31T10:31:35.161Z,4.30
2018-08-31T10:32:35.078Z,3.90
2018-08-31T10:33:35.091Z,4.20
2018-08-31T10:34:34.908Z,3.90
2018-08-31T10:35:34.842Z,4.10
2018-08-31T10:36:34.746Z,9.10
2018-08-31T10:37:34.663Z,10.20
2018-08-31T10:38:34.580Z,4.90
2018-08-31T10:39:34.498Z,3.90
2018-08-31T10:40:34.536Z,3.30
2018-08-31T10:41:34.334Z,3.20
2018-08-31T10:42:34.251Z,3.70
2018-08-31T10:43:34.170Z,3.70
2018-08-31T10:44:34.085Z,3.10
2018-08-31T10:45:34.025Z,3.40
2018-08-31T10:46:34.006Z,3.70
2018-08-31T10:47:33.940Z,3.60
2018-08-31T10:48:33.759Z,3.60
2018-08-31T10:49:33.676Z,3.90
2018-08-31T10:50:33.613Z,3.70
2018-08-31T10:51:33.512Z,4.00
2018-08-31T10:52:33.435Z,3.80
2018-08-31T10:53:33.349Z,3.50
2018-08-31T10:54:33.360Z,3.80
2018-08-31T10:55:33.194Z,3.50
2018-08-31T10:56:33.099Z,3.90
2018-08-31T10:57:33.011Z,3.70
2018-08-31T10:58:32.931Z,3.70
2018-08-31T10:59:32.843Z,4.20
2018-08-31T11:00:32.796Z,4.70
2018-08-31T11:01:32.794Z,3.90
2018-08-31T11:02:32.594Z,3.90
2018-08-31T11:03:32.563Z,4.00
2018-08-31T11:04:32.432Z,4.20
2018-08-31T11:05:32.361Z,4.00
2018-08-31T11:06:32.260Z,4.10
2018-08-31T11:07:32.179Z,4.00
2018-08-31T11:08:32.092Z,4.50
2018-08-31T11:09:32.009Z,4.00
2018-08-31T11:10:31.945Z,4.50
2018-08-31T11:11:31.842Z,4.30
2018-08-31T11:12:31.763Z,4.40
2018-08-31T11:13:31.670Z,4.30
2018-08-31T11:14:31.585Z,4.50
2018-08-31T11:15:31.520Z,4.00
2018-08-31T11:16:31.413Z,4.30
2018-08-31T11:17:31.328Z,3.90
2018-08-31T11:18:31.244Z,4.10
2018-08-31T11:19:31.162Z,4.50
2018-08-31T11:20:31.091Z,4.30
2018-08-31T11:21:30.995Z,4.40
2018-08-31T11:22:30.905Z,4.20
2018-08-31T11:23:30.821Z,4.20
2018-08-31T11:24:30.734Z,4.20
2018-08-31T11:25:30.667Z,4.30
2018-08-31T11:26:30.564Z,4.40
2018-08-31T11:27:30.478Z,4.20
2018-08-31T11:28:30.398Z,4.70
2018-08-31T11:29:30.307Z,4.10
2018-08-31T11:30:30.224Z,4.30
2018-08-31T11:31:30.155Z,4.70
2018-08-31T11:32:30.050Z,4.70
2018-08-31T11:33:29.967Z,4.60
2018-08-31T11:34:29.884Z,4.20
2018-08-31T11:35:29.798Z,4.70
2018-08-31T11:36:29.729Z,4.60
2018-08-31T11:37:29.628Z,4.60
2018-08-31T11:38:29.540Z,4.30
2018-08-31T11:39:29.496Z,4.50
2018-08-31T11:40:29.371Z,4.20
2018-08-31T11:41:29.302Z,4.40
2018-08-31T11:42:29.200Z,4.60
2018-08-31T11:43:29.165Z,5.20
2018-08-31T11:44:29.028Z,4.50
2018-08-31T11:45:28.947Z,4.20
2018-08-31T11:46:28.874Z,4.20
2018-08-31T11:47:28.770Z,4.60
2018-08-31T11:48:28.684Z,4.50
2018-08-31T11:49:28.601Z,4.50
2018-08-31T11:50:28.517Z,4.30
2018-08-31T11:51:28.446Z,4.30
2018-08-31T11:52:28.348Z,4.60
2018-08-31T11:53:28.263Z,4.40
2018-08-31T11:54:28.172Z,4.50
2018-08-31T11:55:28.092Z,4.40
2018-08-31T11:56:28.025Z,4.30
2018-08-31T11:57:27.922Z,5.20
2018-08-31T11:58:27.837Z,4.80
2018-08-31T11:59:27.751Z,5.20
2018-08-31T12:00:27.662Z,4.50
2018-08-31T12:01:27.733Z,4.80
2018-08-31T12:02:27.490Z,5.30
2018-08-31T12:03:27.405Z,5.20
2018-08-31T12:04:27.320Z,5.90
2018-08-31T12:05:27.234Z,6.20
2018-08-31T12:06:27.165Z,5.30
2018-08-31T12:07:27.061Z,5.40
2018-08-31T12:08:26.975Z,5.20
2018-08-31T12:09:26.890Z,5.10
2018-08-31T12:10:26.802Z,4.90
2018-08-31T12:11:26.733Z,5.10
2018-08-31T12:12:26.635Z,5.60
2018-08-31T12:13:26.544Z,5.00
2018-08-31T12:14:26.456Z,4.90
2018-08-31T12:15:26.369Z,4.80
2018-08-31T12:16:26.301Z,4.60
2018-08-31T12:17:26.197Z,5.00
2018-08-31T12:18:26.112Z,4.30
2018-08-31T12:19:26.027Z,4.80
2018-08-31T12:20:25.938Z,4.90
2018-08-31T12:21:25.867Z,4.40
2018-08-31T12:22:25.765Z,4.60
2018-08-31T12:23:25.679Z,4.50
2018-08-31T12:24:25.688Z,4.00
2018-08-31T12:25:25.504Z,4.10
2018-08-31T12:26:25.437Z,4.50
2018-08-31T12:27:25.344Z,4.00
2018-08-31T12:28:25.246Z,4.40
2018-08-31T12:29:25.161Z,4.40
2018-08-31T12:30:25.072Z,4.20
2018-08-31T12:31:25.108Z,4.20
2018-08-31T12:32:24.900Z,4.90
2018-08-31T12:33:24.814Z,4.40
2018-08-31T12:34:24.735Z,4.30
2018-08-31T12:35:24.641Z,3.80
2018-08-31T12:36:24.568Z,4.20
2018-08-31T12:37:24.470Z,3.80
2018-08-31T12:38:24.479Z,3.90
2018-08-31T12:39:24.300Z,4.00
2018-08-31T12:40:24.212Z,4.50
2018-08-31T12:41:24.138Z,4.10
2018-08-31T12:42:24.038Z,4.10
2018-08-31T12:43:23.949Z,3.80
2018-08-31T12:44:23.871Z,4.20
2018-08-31T12:45:23.885Z,3.90
2018-08-31T12:46:23.706Z,3.60
2018-08-31T12:47:23.601Z,3.80
2018-08-31T12:48:23.514Z,4.00
2018-08-31T12:49:23.430Z,3.90
2018-08-31T12:50:23.341Z,3.70
2018-08-31T12:51:23.271Z,4.00
2018-08-31T12:52:23.283Z,3.80
2018-08-31T12:53:23.082Z,3.80
2018-08-31T12:54:22.992Z,3.90
2018-08-31T12:55:22.906Z,4.10
2018-08-31T12:56:22.836Z,4.10
2018-08-31T12:57:22.736Z,4.20
2018-08-31T12:58:22.642Z,3.80
2018-08-31T12:59:22.653Z,4.20
2018-08-31T13:00:22.471Z,4.30
2018-08-31T13:01:22.399Z,4.10
2018-08-31T13:02:22.298Z,4.60
2018-08-31T13:03:22.211Z,4.30
2018-08-31T13:04:22.122Z,4.30
2018-08-31T13:05:22.035Z,4.10
2018-08-31T13:06:22.062Z,4.50